Sacul, Texas
Current Conditions -  °F | °C
As of 9:55 AM on Wednesday 26 Nov 2014 (Local Time) from KJSO Reporting Station
Clear Clear  
Wind Chill: 57°   Ceiling: Unl
Heat Index: 57°   Visibility: 10mi
Dew Point: 32°   Wind: 14mph
Humidity: 38%   Direction: 240°WSW
Pressure: 30.17"   Gusts: 18mph
Location:  31.82°N, 94.92°W
Report Text: KJSO 261555Z AUTO 24012G16KT 210V270 10SM CLR 13/00 A3017 RMK AO2 T01411002
Loading
Personal Weather Stations






























Interactive Weather Map New forecast layout! Learn more

10-Day Weather Forecast

Advertisements
Track Severe Weather on mobile